^^
Station Historical Data
Daily Summary for August 4, 2017 Units:  English    Metric   Both
« Previous Day
Next Day »
Daily Weekly Monthly Yearly Custom
  High: Low: Average:
Temperature: 84.9 °F 69.4 °F 76 °F
Dew Point: 72.4 °F 61.8 °F 68.2 °F
Humidity: 96% 47% 79%
Wind Speed: 6.0mph 0.0mph 1.6mph
Wind Gust: 14.0mph - -
Wind- - SSW
Pressure: 30.08 in 29.93 in -
Precipitation: 0.03 in    
Historical Graphs
 
 
Tabular Data for August 4, 2017
Time Temperature Dew Point Pressure Wind Wind Speed Wind Gust Humidity Rainfall Rate (Hourly) Conditions
00:00 72.8 °F 68.0 °F 30.08 in Calm   2.0 mph 85% 0.00 in CLR
00:15 72.6 °F 67.8 °F 30.08 in Calm   1.0 mph 85% 0.00 in SCT
00:30 72.4 °F 68.0 °F 30.07 in Calm   1.0 mph 86% 0.00 in SCT
00:45 72.1 °F 68.0 °F 30.07 in Calm   1.0 mph 87% 0.00 in SCT
01:00 71.8 °F 67.7 °F 30.07 in Calm   2.0 mph 87% 0.00 in SCT
01:15 71.8 °F 67.7 °F 30.07 in Calm   2.0 mph 87% 0.00 in SCT
01:30 71.7 °F 67.3 °F 30.07 in Calm   2.0 mph 86% 0.00 in SCT
01:45 71.8 °F 67.4 °F 30.07 in Calm   1.0 mph 86% 0.00 in SCT
02:00 71.2 °F 67.1 °F 30.07 in Calm     87% 0.00 in SCT
02:15 70.8 °F 67.1 °F 30.07 in Calm     88% 0.00 in CLR
02:30 70.5 °F 66.8 °F 30.07 in Calm     88% 0.00 in CLR
02:45 70.4 °F 66.7 °F 30.07 in Calm     88% 0.00 in CLR
03:00 70.5 °F 66.4 °F 30.07 in Calm     87% 0.00 in CLR
03:15 70.0 °F 66.3 °F 30.07 in Calm     88% 0.00 in CLR
03:30 69.8 °F 66.4 °F 30.07 in Calm     89% 0.00 in CLR
03:45 69.5 °F 66.4 °F 30.07 in Calm     90% 0.00 in CLR
04:00 69.7 °F 66.6 °F 30.06 in Calm     90% 0.00 in CLR
04:15 69.4 °F 67.0 °F 30.06 in Calm   2.0 mph 92% 0.00 in CLR
04:30 69.8 °F 67.4 °F 30.06 in Calm   3.0 mph 92% 0.00 in CLR
04:45 69.9 °F 67.5 °F 30.06 in Calm   1.0 mph 92% 0.00 in CLR
05:00 69.9 °F 67.5 °F 30.06 in Calm   1.0 mph 92% 0.00 in CLR
05:15 69.8 °F 67.7 °F 30.06 in Calm     93% 0.00 in CLR
05:30 69.7 °F 67.9 °F 30.06 in Calm   1.0 mph 94% 0.00 in CLR
05:45 70.0 °F 68.2 °F 30.06 in Calm   1.0 mph 94% 0.00 in CLR
06:00 69.8 °F 68.0 °F 30.06 in Calm     94% 0.00 in CLR
06:15 69.8 °F 68.3 °F 30.06 in Calm   1.0 mph 95% 0.00 in FEW
06:30 69.9 °F 68.4 °F 30.07 in Calm   2.0 mph 95% 0.00 in FEW
06:45 70.3 °F 69.1 °F 30.06 in Calm   1.0 mph 96% 0.00 in FEW
07:00 70.7 °F 69.5 °F 30.07 in Calm   1.0 mph 96% 0.00 in FEW
07:15 71.4 °F 70.2 °F 30.07 in Calm   3.0 mph 96% 0.00 in BKN
07:30 72.2 °F 70.7 °F 30.06 in Calm   4.0 mph 95% 0.00 in BKN
07:45 72.6 °F 70.5 °F 30.06 in Calm   3.0 mph 93% 0.00 in BKN
08:00 72.9 °F 70.4 °F 30.07 in Calm   5.0 mph 92% 0.00 in BKN
08:15 73.2 °F 70.4 °F 30.06 in South 1.0 mph 7.0 mph 91% 0.00 in BKN
08:30 74.6 °F 70.5 °F 30.06 in SSW 2.0 mph 8.0 mph 87% 0.00 in BKN
08:45 75.8 °F 69.6 °F 30.06 in SW 2.0 mph 10.0 mph 81% 0.00 in BKN
09:00 76.2 °F 69.9 °F 30.07 in Calm   6.0 mph 81% 0.00 in BKN
09:15 75.2 °F 70.0 °F 30.06 in South 1.0 mph 4.0 mph 84% 0.02 in RA
09:30 72.8 °F 68.7 °F 30.07 in Calm   3.0 mph 87% 0.01 in RA
09:45 71.9 °F 69.1 °F 30.06 in Calm   2.0 mph 91% 0.00 in BKN
10:00 72.9 °F 70.1 °F 30.06 in Calm   4.0 mph 91% 0.00 in BKN
10:15 74.7 °F 71.2 °F 30.06 in SW 1.0 mph 5.0 mph 89% 0.00 in -RA
10:30 76.0 °F 71.5 °F 30.06 in SSW 3.0 mph 7.0 mph 86% 0.00 in -RA
10:45 77.3 °F 72.4 °F 30.06 in Calm   6.0 mph 85% 0.00 in -RA
11:00 77.5 °F 71.9 °F 30.06 in SSW 2.0 mph 8.0 mph 83% 0.00 in -RA
11:15 78.7 °F 72.0 °F 30.05 in SSW 3.0 mph 8.0 mph 80% 0.00 in BKN
11:30 79.6 °F 71.8 °F 30.05 in SSW 5.0 mph 12.0 mph 77% 0.00 in BKN
11:45 79.7 °F 72.2 °F 30.04 in South 1.0 mph 12.0 mph 78% 0.00 in BKN
12:00 80.6 °F 72.3 °F 30.05 in SSW 1.0 mph 9.0 mph 76% 0.00 in BKN
12:15 81.2 °F 72.1 °F 30.04 in South 5.0 mph 8.0 mph 74% 0.00 in BKN
12:30 81.4 °F 72.3 °F 30.04 in SSE 2.0 mph 12.0 mph 74% 0.00 in BKN
12:45 81.9 °F 72.4 °F 30.03 in SW 2.0 mph 8.0 mph 73% 0.00 in BKN
13:00 82.9 °F 72.1 °F 30.03 in SW 5.0 mph 9.0 mph 70% 0.00 in BKN
13:15 82.7 °F 71.5 °F 30.02 in South 3.0 mph 10.0 mph 69% 0.00 in SCT
13:30 83.3 °F 71.2 °F 30.02 in SSW 2.0 mph 10.0 mph 67% 0.00 in SCT
13:45 83.5 °F 70.1 °F 30.02 in SW 3.0 mph 12.0 mph 64% 0.00 in SCT
14:00 84.4 °F 70.0 °F 30.01 in SSW 2.0 mph 7.0 mph 62% 0.00 in SCT
14:15 84.0 °F 66.1 °F 30.00 in SW 3.0 mph 10.0 mph 55% 0.00 in FEW
14:30 84.2 °F 65.2 °F 29.99 in WSW 5.0 mph 14.0 mph 53% 0.00 in FEW
14:45 84.4 °F 64.8 °F 29.99 in SW 3.0 mph 12.0 mph 52% 0.00 in FEW
15:00 84.2 °F 62.4 °F 29.98 in SSW 5.0 mph 12.0 mph 48% 0.00 in FEW
15:15 84.2 °F 61.8 °F 29.97 in SSW 2.0 mph 10.0 mph 47% 0.00 in FEW
15:30 84.5 °F 62.7 °F 29.97 in SSW 3.0 mph 10.0 mph 48% 0.00 in FEW
15:45 84.5 °F 62.6 °F 29.97 in SSW 5.0 mph 9.0 mph 48% 0.00 in FEW
16:00 84.8 °F 62.3 °F 29.97 in West 1.0 mph 7.0 mph 47% 0.00 in FEW
16:15 84.5 °F 62.7 °F 29.97 in WSW 2.0 mph 8.0 mph 48% 0.00 in FEW
16:30 84.9 °F 63.0 °F 29.97 in SW 2.0 mph 8.0 mph 48% 0.00 in FEW
16:45 84.4 °F 63.1 °F 29.96 in SSW 5.0 mph 10.0 mph 49% 0.00 in FEW
17:00 84.1 °F 62.8 °F 29.95 in SSW 2.0 mph 9.0 mph 49% 0.00 in FEW
17:15 83.3 °F 62.7 °F 29.96 in SW 5.0 mph 12.0 mph 50% 0.00 in FEW
17:30 82.6 °F 63.7 °F 29.96 in SSW 5.0 mph 10.0 mph 53% 0.00 in FEW
17:45 82.3 °F 62.9 °F 29.96 in South 6.0 mph 12.0 mph 52% 0.00 in FEW
18:00 81.5 °F 62.1 °F 29.96 in WSW 3.0 mph 9.0 mph 52% 0.00 in FEW
18:15 81.2 °F 62.4 °F 29.95 in SSW 3.0 mph 13.0 mph 53% 0.00 in FEW
18:30 81.0 °F 65.3 °F 29.94 in West 3.0 mph 10.0 mph 59% 0.00 in FEW
18:45 80.1 °F 66.8 °F 29.94 in WSW 3.0 mph 9.0 mph 64% 0.00 in FEW
19:00 79.4 °F 68.0 °F 29.93 in South 5.0 mph 9.0 mph 68% 0.00 in FEW
19:15 78.6 °F 69.6 °F 29.93 in South 2.0 mph 12.0 mph 74% 0.00 in FEW
19:30 77.0 °F 70.3 °F 29.93 in South 5.0 mph 14.0 mph 80% 0.00 in FEW
19:45 76.1 °F 70.6 °F 29.94 in SW 3.0 mph 9.0 mph 83% 0.00 in FEW
20:00 75.7 °F 70.9 °F 29.95 in SW 2.0 mph 10.0 mph 85% 0.00 in FEW
20:15 75.4 °F 70.6 °F 29.94 in SW 3.0 mph 8.0 mph 85% 0.00 in BKN
20:30 75.1 °F 70.6 °F 29.94 in SSW 2.0 mph 9.0 mph 86% 0.00 in BKN
20:45 74.6 °F 70.5 °F 29.94 in SW 2.0 mph 9.0 mph 87% 0.00 in BKN
21:00 74.1 °F 70.0 °F 29.95 in South 1.0 mph 8.0 mph 87% 0.00 in BKN
21:15 73.7 °F 69.6 °F 29.95 in SSW 2.0 mph 7.0 mph 87% 0.00 in BKN
21:30 73.5 °F 69.7 °F 29.95 in Calm   5.0 mph 88% 0.00 in BKN
21:45 73.3 °F 69.9 °F 29.95 in South 1.0 mph 8.0 mph 89% 0.00 in BKN
22:00 73.3 °F 69.9 °F 29.95 in South 1.0 mph 5.0 mph 89% 0.00 in BKN
22:15 73.2 °F 69.8 °F 29.96 in SW 1.0 mph 6.0 mph 89% 0.00 in BKN
22:30 73.0 °F 69.9 °F 29.95 in SW 2.0 mph 6.0 mph 90% 0.00 in BKN
22:45 72.8 °F 69.7 °F 29.95 in SW 1.0 mph 6.0 mph 90% 0.00 in BKN
23:00 72.5 °F 69.7 °F 29.95 in SW 1.0 mph 5.0 mph 91% 0.00 in BKN
23:30 72.3 °F 69.2 °F 29.93 in South 3.0 mph 6.0 mph 90% 0.00 in BKN
23:45 72.2 °F 68.8 °F 29.93 in WSW 1.0 mph 6.0 mph 89% 0.00 in BKN
TarryTown NY Weather
Compliments of Weather Underground - 1.5 mb